Huntsville International Carl T Jones Field
KHSV : now visible

Airfield :











YOU CAN JOIN US ON...

 
LOGIN :

Register | Disclaimer

   EN    FR    IT 

 









Legend :    VFR   Marginal VFR   IFR   Intensive IFR   Very Intensive IFR
Visi :
Ceiling :
>= 8 km
>= 3000ft
5 to 8 km
1000 to 3000 ft
1500m to 5 km
500 to 1000 ft
800 to 1500m
200 to 500 ft
< 800m
< 200 ft
Symbols :   Thunderstorms  Fog  Heavy snow  Heavy precipitations  Wind > 20 kt






- Airport Elevation : 629 ft
- IATA code : HSV


KHSV - Huntsville International Carl T Jones Field

CURRENT METAR :
  • 011553Z 36006KT 10SM OVC010 02/01 A3034 RMK AO2 SLP276 T00220006

EXPIRED METARs :
  • 011535Z 36006KT 10SM OVC010 02/00 A3034 RMK AO2 T00220000
  • 011525Z 02008KT 10SM OVC009 02/01 A3035 RMK AO2 CIG 009V012 T00220006
  • 011453Z 01007KT 10SM BKN010 OVC040 02/00 A3032 RMK AO2 SLP272 T00220000 53018
  • 011353Z 35006KT 10SM BKN010 OVC043 02/00 A3031 RMK AO2 SLP266 T00170000
  • 011317Z 01006KT 10SM BKN010 BKN043 OVC120 02/00 A3028 RMK AO2 T00170000
  • 011253Z 01008KT 10SM BKN009 OVC036 02/00 A3028 RMK AO2 CIG 007V011 SLP258 T00170000

TAF KHSV
Valid from the 01 at 12:00 until the 02 at 12:00 UTC


011120Z 0112/0212 36008KT P6SM BKN007
FM012200 01006KT P6SM BKN010
FM020400 VRB04KT P6SM OVC009
PROB30 0206/0208 4SM -SHRA BR OVC001
FM020800 36005KT 4SM SHRA BR OVC006
KZME FIR / North America



MET'MAP, your aeronautical weather chart ! - Copyright ORBIFLY December 2007 - Disclaimer

ORBIFLY MET'MAP TEAM :

Programming & Development : Alexandra Zaïnal
Original concept : Baudouin d'Aumeries
Technical & hardware support : Manuel Goepfert
Assistance : Marc-Olivier Méhu




SOURCES & CREDITS :

   NOAA       Earth
Advisory